createdAt,value
2019-06-20T00:00:23.775Z,99.90
2019-06-20T00:03:25.210Z,99.90
2019-06-20T00:06:26.713Z,99.90
2019-06-20T00:09:28.231Z,99.90
2019-06-20T00:12:29.724Z,99.90
2019-06-20T00:15:31.245Z,99.90
2019-06-20T00:18:32.731Z,99.90
2019-06-20T00:21:34.264Z,99.90
2019-06-20T00:24:35.754Z,99.90
2019-06-20T00:27:37.387Z,99.90
2019-06-20T00:30:39.382Z,99.90
2019-06-20T00:33:40.899Z,99.90
2019-06-20T00:36:42.405Z,99.90
2019-06-20T00:39:43.851Z,99.90
2019-06-20T00:42:45.340Z,99.90
2019-06-20T00:45:47.383Z,99.90
2019-06-20T00:48:48.782Z,99.90
2019-06-20T00:51:50.631Z,99.90
2019-06-20T00:54:52.109Z,99.90
2019-06-20T00:57:53.556Z,99.90
2019-06-20T01:00:55.143Z,99.90
2019-06-20T01:03:56.588Z,99.90
2019-06-20T01:06:58.125Z,99.90
2019-06-20T01:09:59.634Z,99.90
2019-06-20T01:13:01.114Z,99.90
2019-06-20T01:16:02.793Z,99.90
2019-06-20T01:19:04.142Z,99.90
2019-06-20T01:22:05.676Z,99.90
2019-06-20T01:25:28.737Z,99.90
2019-06-20T01:28:30.155Z,99.90
2019-06-20T01:31:31.637Z,99.90
2019-06-20T01:34:33.084Z,99.90
2019-06-20T01:37:34.569Z,99.90
2019-06-20T01:40:36.080Z,99.90
2019-06-20T01:43:50.251Z,99.90
2019-06-20T01:46:41.640Z,99.90
2019-06-20T01:49:42.969Z,99.90
2019-06-20T01:52:44.685Z,99.90
2019-06-20T01:55:46.074Z,99.90
2019-06-20T01:58:47.520Z,99.90
2019-06-20T02:01:49.003Z,99.90
2019-06-20T02:04:50.436Z,99.90
2019-06-20T02:07:51.706Z,99.90
2019-06-20T02:10:53.258Z,99.90
2019-06-20T02:14:06.897Z,99.90
2019-06-20T02:16:58.191Z,99.90
2019-06-20T02:19:59.661Z,99.90
2019-06-20T02:23:02.217Z,99.90
2019-06-20T02:26:03.748Z,99.90
2019-06-20T02:29:05.298Z,99.90
2019-06-20T02:32:06.775Z,99.90
2019-06-20T02:35:08.414Z,99.90
2019-06-20T02:38:09.911Z,99.90
2019-06-20T02:41:11.333Z,99.90
2019-06-20T02:44:29.293Z,99.90
2019-06-20T02:47:16.199Z,99.90
2019-06-20T02:50:17.682Z,99.90
2019-06-20T02:53:19.318Z,99.90
2019-06-20T02:56:20.811Z,99.90
2019-06-20T02:59:22.332Z,99.90
2019-06-20T03:02:23.801Z,99.90
2019-06-20T03:05:45.094Z,99.90
2019-06-20T03:08:46.482Z,99.90
2019-06-20T03:11:47.989Z,99.90
2019-06-20T03:14:49.742Z,99.90
2019-06-20T03:17:51.301Z,99.90
2019-06-20T03:20:52.790Z,99.90
2019-06-20T03:23:54.322Z,99.90
2019-06-20T03:26:55.703Z,99.90
2019-06-20T03:29:57.230Z,99.90
2019-06-20T03:32:58.765Z,99.90
2019-06-20T03:36:00.246Z,99.90
2019-06-20T03:39:01.630Z,99.90
2019-06-20T03:42:03.249Z,99.90
2019-06-20T03:45:05.452Z,99.90
2019-06-20T03:48:06.880Z,99.90
2019-06-20T03:51:08.427Z,99.90
2019-06-20T03:54:09.902Z,99.90
2019-06-20T03:57:11.298Z,99.90
2019-06-20T04:00:13.154Z,99.90
2019-06-20T04:03:14.643Z,99.90
2019-06-20T04:06:16.172Z,99.90
2019-06-20T04:09:17.783Z,99.90
2019-06-20T04:12:19.416Z,99.90
2019-06-20T04:15:20.893Z,99.90
2019-06-20T04:18:22.574Z,99.90
2019-06-20T04:21:24.074Z,99.90
2019-06-20T04:24:27.839Z,99.90
2019-06-20T04:27:28.570Z,99.90
2019-06-20T04:30:30.097Z,99.90
2019-06-20T04:33:31.409Z,99.90
2019-06-20T04:36:33.076Z,99.90
2019-06-20T04:39:34.398Z,99.90
2019-06-20T04:42:35.843Z,99.90
2019-06-20T04:45:39.218Z,99.90
2019-06-20T04:48:40.801Z,99.90
2019-06-20T04:51:42.327Z,99.90
2019-06-20T04:54:44.878Z,99.90
2019-06-20T04:57:46.542Z,99.90
2019-06-20T05:00:48.073Z,99.90
2019-06-20T05:03:49.571Z,99.90
2019-06-20T05:07:00.432Z,99.90
2019-06-20T05:10:04.014Z,99.90
2019-06-20T05:13:05.600Z,99.90
2019-06-20T05:16:07.115Z,99.90
2019-06-20T05:19:08.537Z,99.90
2019-06-20T05:22:10.038Z,99.80
2019-06-20T05:25:11.652Z,99.10
2019-06-20T05:28:13.038Z,98.80
2019-06-20T05:31:14.405Z,98.10
2019-06-20T05:34:15.789Z,98.10
2019-06-20T05:37:17.836Z,97.30
2019-06-20T05:40:19.624Z,96.60
2019-06-20T05:43:21.093Z,97.50
2019-06-20T05:46:22.387Z,97.10
2019-06-20T05:49:23.852Z,96.50
2019-06-20T05:52:25.223Z,96.50
2019-06-20T05:55:26.885Z,96.70
2019-06-20T05:58:28.270Z,96.90
2019-06-20T06:01:29.793Z,97.00
2019-06-20T06:04:31.213Z,96.50
2019-06-20T06:07:33.226Z,96.60
2019-06-20T06:10:34.873Z,96.10
2019-06-20T06:13:36.603Z,95.70
2019-06-20T06:16:38.082Z,95.70
2019-06-20T06:19:39.501Z,96.30
2019-06-20T06:22:44.513Z,96.60
2019-06-20T06:25:44.394Z,96.00
2019-06-20T06:28:45.908Z,95.40
2019-06-20T06:31:48.085Z,95.70
2019-06-20T06:34:49.467Z,94.80
2019-06-20T06:37:51.100Z,95.40
2019-06-20T06:40:52.612Z,94.80
2019-06-20T06:43:54.103Z,94.50
2019-06-20T06:46:59.438Z,94.10
2019-06-20T06:49:58.883Z,94.60
2019-06-20T06:53:01.360Z,94.80
2019-06-20T06:56:04.164Z,94.70
2019-06-20T06:59:05.953Z,94.70
2019-06-20T07:02:07.527Z,94.70
2019-06-20T07:05:09.205Z,94.50
2019-06-20T07:08:10.757Z,93.50
2019-06-20T07:11:12.243Z,93.20
2019-06-20T07:14:13.804Z,91.80
2019-06-20T07:17:15.293Z,91.60
2019-06-20T07:20:17.156Z,92.50
2019-06-20T07:23:18.561Z,92.90
2019-06-20T07:26:20.082Z,93.30
2019-06-20T07:29:21.608Z,91.90
2019-06-20T07:32:23.167Z,92.30
2019-06-20T07:35:24.672Z,92.20
2019-06-20T07:38:26.250Z,92.20
2019-06-20T07:41:27.590Z,91.80
2019-06-20T07:44:29.121Z,91.30
2019-06-20T07:47:30.734Z,91.70
2019-06-20T07:50:32.282Z,90.90
2019-06-20T07:53:33.683Z,90.50
2019-06-20T07:56:35.375Z,91.90
2019-06-20T07:59:36.655Z,91.40
2019-06-20T08:02:38.328Z,91.80
2019-06-20T08:05:39.811Z,90.60
2019-06-20T08:08:41.413Z,90.70
2019-06-20T08:11:42.962Z,90.80
2019-06-20T08:14:44.535Z,91.10
2019-06-20T08:17:46.086Z,90.60
2019-06-20T08:20:47.714Z,90.50
2019-06-20T08:23:49.195Z,90.50
2019-06-20T08:26:50.942Z,89.10
2019-06-20T08:29:52.569Z,87.80
2019-06-20T08:32:57.430Z,87.60
2019-06-20T08:35:58.938Z,84.60
2019-06-20T08:39:02.617Z,84.40
2019-06-20T08:42:04.861Z,82.10
2019-06-20T08:45:08.706Z,85.10
2019-06-20T08:48:12.005Z,81.80
2019-06-20T08:51:14.826Z,82.50
2019-06-20T08:54:16.375Z,78.70
2019-06-20T08:57:18.417Z,79.50
2019-06-20T09:00:20.654Z,80.70
2019-06-20T09:03:23.366Z,76.20
2019-06-20T09:06:25.185Z,77.10
2019-06-20T09:09:27.084Z,75.30
2019-06-20T09:12:28.564Z,75.90
2019-06-20T09:15:31.054Z,74.60
2019-06-20T09:18:32.814Z,76.30
2019-06-20T09:21:34.525Z,77.10
2019-06-20T09:24:36.086Z,76.20
2019-06-20T09:27:39.839Z,76.10
2019-06-20T09:30:42.237Z,77.60
2019-06-20T09:33:43.916Z,77.10
2019-06-20T09:36:45.843Z,75.40
2019-06-20T09:39:47.794Z,73.90
2019-06-20T09:42:51.141Z,75.30
2019-06-20T09:45:54.427Z,75.40
2019-06-20T09:48:56.277Z,77.80
2019-06-20T09:51:58.725Z,75.70
2019-06-20T09:55:01.454Z,74.80
2019-06-20T09:58:03.662Z,74.20
2019-06-20T10:01:05.306Z,71.30
2019-06-20T10:04:07.130Z,72.90
2019-06-20T10:07:08.631Z,69.80
2019-06-20T10:10:13.472Z,71.90
2019-06-20T10:13:16.344Z,70.70
2019-06-20T10:16:18.629Z,69.80
2019-06-20T10:19:21.291Z,68.70
2019-06-20T10:22:23.146Z,67.30
2019-06-20T10:25:25.439Z,65.40
2019-06-20T10:28:27.578Z,65.10
2019-06-20T10:31:30.715Z,62.10
2019-06-20T10:34:32.269Z,62.20
2019-06-20T10:37:34.348Z,59.70
2019-06-20T10:40:36.352Z,58.00
2019-06-20T10:43:38.155Z,60.00
2019-06-20T10:46:40.001Z,58.30
2019-06-20T10:49:43.457Z,60.90
2019-06-20T10:52:48.176Z,59.50
2019-06-20T10:55:51.918Z,58.90
2019-06-20T10:58:54.121Z,59.00
2019-06-20T11:01:56.976Z,63.40
2019-06-20T11:04:58.991Z,59.20
2019-06-20T11:08:01.201Z,58.40
2019-06-20T11:11:04.391Z,57.60
2019-06-20T11:14:06.161Z,59.10
2019-06-20T11:17:10.547Z,58.40
2019-06-20T11:20:13.882Z,57.10
2019-06-20T11:23:15.617Z,55.70
2019-06-20T11:26:17.477Z,57.00
2019-06-20T11:29:20.284Z,53.90
2019-06-20T11:32:23.802Z,52.50
2019-06-20T11:35:25.868Z,51.60
2019-06-20T11:38:27.532Z,52.30
2019-06-20T11:41:31.050Z,53.10
2019-06-20T11:44:32.712Z,52.90
2019-06-20T11:47:35.510Z,53.60
2019-06-20T11:50:37.980Z,53.30
2019-06-20T11:53:42.643Z,52.70
2019-06-20T11:56:44.351Z,50.70
2019-06-20T11:59:45.993Z,49.30
2019-06-20T12:02:48.328Z,50.40
2019-06-20T12:05:50.379Z,49.70
2019-06-20T12:08:51.894Z,54.00
2019-06-20T12:11:53.483Z,53.00
2019-06-20T12:14:55.717Z,51.80
2019-06-20T12:17:57.506Z,47.30
2019-06-20T12:20:59.137Z,49.40
2019-06-20T12:24:00.707Z,50.70
2019-06-20T12:27:04.172Z,53.30
2019-06-20T12:30:11.023Z,55.60
2019-06-20T12:33:13.271Z,57.10
2019-06-20T12:36:15.232Z,59.70
2019-06-20T12:39:17.197Z,67.40
2019-06-20T12:42:19.102Z,71.60
2019-06-20T12:45:22.794Z,63.40
2019-06-20T12:48:25.164Z,66.90
2019-06-20T12:51:27.074Z,68.30
2019-06-20T12:54:30.272Z,71.60
2019-06-20T12:57:32.107Z,65.70
2019-06-20T13:00:33.817Z,59.10
2019-06-20T13:03:38.575Z,55.60
2019-06-20T13:06:40.502Z,48.80
2019-06-20T13:09:43.966Z,48.60
2019-06-20T13:12:46.528Z,50.00
2019-06-20T13:15:48.998Z,51.40
2019-06-20T13:18:51.020Z,54.60
2019-06-20T13:21:54.235Z,53.50
2019-06-20T13:24:56.387Z,50.70
2019-06-20T13:27:58.245Z,51.70
2019-06-20T13:31:01.104Z,53.30
2019-06-20T13:34:03.561Z,57.00
2019-06-20T13:37:05.823Z,57.40
2019-06-20T13:40:10.071Z,57.80
2019-06-20T13:43:12.566Z,59.10
2019-06-20T13:46:15.810Z,52.20
2019-06-20T13:49:18.239Z,53.70
2019-06-20T13:52:20.529Z,51.30
2019-06-20T13:55:23.887Z,52.10
2019-06-20T13:58:25.936Z,52.30
2019-06-20T14:01:29.205Z,56.10
2019-06-20T14:04:30.755Z,54.10
2019-06-20T14:07:33.606Z,50.70
2019-06-20T14:10:35.256Z,52.30
2019-06-20T14:13:37.113Z,49.50
2019-06-20T14:16:41.230Z,48.90
2019-06-20T14:19:43.733Z,45.50
2019-06-20T14:22:46.076Z,45.60
2019-06-20T14:25:49.833Z,49.40
2019-06-20T14:28:51.696Z,47.10
2019-06-20T14:31:53.773Z,47.60
2019-06-20T14:34:58.028Z,48.40
2019-06-20T14:38:00.780Z,42.70
2019-06-20T14:41:02.587Z,47.60
2019-06-20T14:44:06.067Z,36.30
2019-06-20T14:47:09.391Z,39.40
2019-06-20T14:50:13.661Z,33.20
2019-06-20T14:53:20.012Z,35.20
2019-06-20T14:56:22.915Z,37.70
2019-06-20T14:59:24.882Z,40.80
2019-06-20T15:02:38.010Z,43.70
2019-06-20T15:05:34.634Z,46.20
2019-06-20T15:08:34.397Z,45.10
2019-06-20T15:11:35.916Z,44.20
2019-06-20T15:14:37.483Z,44.50
2019-06-20T15:17:39.760Z,44.80
2019-06-20T15:20:42.166Z,41.30
2019-06-20T15:23:47.234Z,36.00
2019-06-20T15:26:49.442Z,38.10
2019-06-20T15:29:52.422Z,35.00
2019-06-20T15:33:06.974Z,34.50
2019-06-20T15:35:58.486Z,33.20
2019-06-20T15:39:00.349Z,35.20
2019-06-20T15:42:02.381Z,37.10
2019-06-20T15:45:08.581Z,40.40
2019-06-20T15:48:10.095Z,42.30
2019-06-20T15:51:11.679Z,41.60
2019-06-20T15:54:13.307Z,36.60
2019-06-20T15:57:14.993Z,37.10
2019-06-20T16:00:18.680Z,37.10
2019-06-20T16:03:20.279Z,36.90
2019-06-20T16:06:21.985Z,33.60
2019-06-20T16:09:25.352Z,35.20
2019-06-20T16:12:26.867Z,37.30
2019-06-20T16:15:30.648Z,43.40
2019-06-20T16:18:32.156Z,48.30
2019-06-20T16:21:33.770Z,50.10
2019-06-20T16:24:35.604Z,52.70
2019-06-20T16:27:37.547Z,56.60
2019-06-20T16:30:39.255Z,58.00
2019-06-20T16:33:41.015Z,61.20
2019-06-20T16:36:42.658Z,62.40
2019-06-20T16:39:46.442Z,63.60
2019-06-20T16:42:48.707Z,62.90
2019-06-20T16:45:50.585Z,63.90
2019-06-20T16:48:54.190Z,63.50
2019-06-20T16:51:57.031Z,65.30
2019-06-20T16:54:59.122Z,65.70
2019-06-20T16:58:01.052Z,65.00
2019-06-20T17:01:03.717Z,61.50
2019-06-20T17:04:05.644Z,62.70
2019-06-20T17:07:07.668Z,61.60
2019-06-20T17:10:12.083Z,63.00
2019-06-20T17:13:13.753Z,64.40
2019-06-20T17:16:17.370Z,66.50
2019-06-20T17:19:19.118Z,69.10
2019-06-20T17:22:21.562Z,70.60
2019-06-20T17:25:23.473Z,72.10
2019-06-20T17:28:25.527Z,75.00
2019-06-20T17:31:27.321Z,78.40
2019-06-20T17:34:29.932Z,78.70
2019-06-20T17:37:31.557Z,81.20
2019-06-20T17:40:33.916Z,82.10
2019-06-20T17:43:36.663Z,83.30
2019-06-20T17:46:38.929Z,84.90
2019-06-20T17:49:41.941Z,86.10
2019-06-20T17:52:43.991Z,87.30
2019-06-20T17:55:46.458Z,89.10
2019-06-20T17:58:48.748Z,89.30
2019-06-20T18:01:51.693Z,90.20
2019-06-20T18:04:54.099Z,90.90
2019-06-20T18:07:57.293Z,92.60
2019-06-20T18:10:59.636Z,93.00
2019-06-20T18:14:01.560Z,93.90
2019-06-20T18:17:03.509Z,94.60
2019-06-20T18:20:07.135Z,94.50
2019-06-20T18:23:11.074Z,94.20
2019-06-20T18:26:13.447Z,94.30
2019-06-20T18:29:15.453Z,94.40
2019-06-20T18:32:17.140Z,94.40
2019-06-20T18:35:19.284Z,94.60
2019-06-20T18:38:21.887Z,95.20
2019-06-20T18:41:23.776Z,95.00
2019-06-20T18:44:25.952Z,95.60
2019-06-20T18:47:28.475Z,95.80
2019-06-20T18:50:32.259Z,96.00
2019-06-20T18:53:35.313Z,96.20
2019-06-20T18:56:37.454Z,96.50
2019-06-20T18:59:39.748Z,96.80
2019-06-20T19:02:42.392Z,97.10
2019-06-20T19:05:46.971Z,97.50
2019-06-20T19:08:50.743Z,98.30
2019-06-20T19:11:56.240Z,98.70
2019-06-20T19:14:59.523Z,99.00
2019-06-20T19:18:03.646Z,99.30
2019-06-20T19:21:07.655Z,99.60
2019-06-20T19:24:11.627Z,99.90
2019-06-20T19:27:15.770Z,99.90
2019-06-20T19:30:22.278Z,99.90
2019-06-20T19:33:26.417Z,99.90
2019-06-20T19:36:31.843Z,99.90
2019-06-20T19:39:35.024Z,99.90
2019-06-20T19:42:37.798Z,99.90
2019-06-20T19:45:39.492Z,99.90
2019-06-20T19:48:42.810Z,99.90
2019-06-20T19:51:45.058Z,99.90
2019-06-20T19:54:47.633Z,99.90
2019-06-20T19:57:50.941Z,99.90
2019-06-20T20:00:53.462Z,99.90
2019-06-20T20:03:55.735Z,99.90
2019-06-20T20:06:59.380Z,99.90
2019-06-20T20:10:02.181Z,99.90
2019-06-20T20:13:04.450Z,99.90
2019-06-20T20:16:05.964Z,99.90
2019-06-20T20:19:10.350Z,99.90
2019-06-20T20:22:11.922Z,99.90
2019-06-20T20:25:15.553Z,99.90
2019-06-20T20:28:17.613Z,99.90
2019-06-20T20:31:21.397Z,99.90
2019-06-20T20:34:24.325Z,99.90
2019-06-20T20:37:27.560Z,99.90
2019-06-20T20:40:29.183Z,99.90
2019-06-20T20:43:31.963Z,99.90
2019-06-20T20:46:33.532Z,99.90
2019-06-20T20:49:35.826Z,99.90
2019-06-20T20:52:37.983Z,99.90
2019-06-20T20:55:39.641Z,99.90
2019-06-20T20:58:45.122Z,99.90
2019-06-20T21:01:48.668Z,99.90
2019-06-20T21:04:50.761Z,99.90
2019-06-20T21:07:54.962Z,99.90
2019-06-20T21:10:56.515Z,99.90
2019-06-20T21:13:57.851Z,99.90
2019-06-20T21:16:59.481Z,99.90
2019-06-20T21:20:01.343Z,99.90
2019-06-20T21:23:02.827Z,99.90
2019-06-20T21:26:05.562Z,99.90
2019-06-20T21:29:07.277Z,99.90
2019-06-20T21:32:09.290Z,99.90
2019-06-20T21:35:11.681Z,99.90
2019-06-20T21:38:13.372Z,99.90
2019-06-20T21:41:16.559Z,99.90
2019-06-20T21:44:18.657Z,99.90
2019-06-20T21:47:20.448Z,99.90
2019-06-20T21:50:22.027Z,99.90
2019-06-20T21:53:23.387Z,99.90
2019-06-20T21:56:25.251Z,99.90
2019-06-20T21:59:26.619Z,99.90
2019-06-20T22:02:28.193Z,99.90
2019-06-20T22:05:29.621Z,99.90
2019-06-20T22:08:31.177Z,99.90
2019-06-20T22:11:32.682Z,99.90
2019-06-20T22:14:34.268Z,99.90
2019-06-20T22:17:35.733Z,99.90
2019-06-20T22:20:37.237Z,99.90
2019-06-20T22:23:38.951Z,99.90
2019-06-20T22:26:40.425Z,99.90
2019-06-20T22:29:42.025Z,99.90
2019-06-20T22:32:43.561Z,99.90
2019-06-20T22:35:45.911Z,99.90
2019-06-20T22:38:47.590Z,99.90
2019-06-20T22:41:49.064Z,99.90
2019-06-20T22:44:50.571Z,99.90
2019-06-20T22:47:51.915Z,99.90
2019-06-20T22:50:53.388Z,99.90
2019-06-20T22:53:54.779Z,99.90
2019-06-20T22:56:56.211Z,99.90
2019-06-20T22:59:57.573Z,99.90
2019-06-20T23:02:59.089Z,99.90
2019-06-20T23:06:00.335Z,99.90
2019-06-20T23:09:01.757Z,99.90
2019-06-20T23:12:03.265Z,99.90
2019-06-20T23:15:06.706Z,99.90
2019-06-20T23:18:08.081Z,99.90
2019-06-20T23:21:09.755Z,99.90
2019-06-20T23:24:11.138Z,99.90
2019-06-20T23:27:14.225Z,99.90
2019-06-20T23:30:16.320Z,99.90
2019-06-20T23:33:17.615Z,99.90
2019-06-20T23:36:18.881Z,99.90
2019-06-20T23:39:20.271Z,99.90
2019-06-20T23:42:21.660Z,99.90
2019-06-20T23:45:23.208Z,99.90
2019-06-20T23:48:24.460Z,99.90
2019-06-20T23:51:27.555Z,99.90
2019-06-20T23:54:28.919Z,99.90
2019-06-20T23:57:30.429Z,99.90
